Time;durP1;ratioP1;P1;durP2;ratioP2;P2;SDS_P1;SDS_P2;PMS_P1;PMS_P2;Temp;Humidity;BMP_temperature;BMP_pressure;BME280_temperature;BME280_humidity;BME280_pressure;Samples;Min_cycle;Max_cycle;Signal;HPM_P1;HPM_P2
2023/07/29 00:00:43;;;;;;;19.08;11.38;;;538.40;2048.00;;;;;;5016758;28;20360;-78
2023/07/29 00:03:09;;;;;;;25.85;15.20;;;538.40;2406.40;;;;;;5032147;28;20041;-77
2023/07/29 00:05:36;;;;;;;19.40;11.38;;;538.40;2406.40;;;;;;5018284;28;20049;-77
2023/07/29 00:08:02;;;;;;;16.83;10.13;;;538.50;2406.40;;;;;;5031675;28;20049;-78
2023/07/29 00:10:28;;;;;;;15.00;9.55;;;538.50;2406.40;;;;;;5022351;28;20056;-78
2023/07/29 00:12:54;;;;;;;12.13;7.65;;;538.50;2406.40;;;;;;5048116;28;20061;-77
2023/07/29 00:15:20;;;;;;;11.73;6.63;;;538.50;2406.40;;;;;;5039094;28;20435;-78
2023/07/29 00:17:46;;;;;;;11.30;5.22;;;563.20;2432.00;;;;;;5042715;28;20030;-78
2023/07/29 00:20:12;;;;;;;10.90;5.22;;;538.30;2406.40;;;;;;5031555;28;20750;-78
2023/07/29 00:22:37;;;;;;;12.68;5.38;;;538.00;2406.40;;;;;;5031608;28;20037;-78
2023/07/29 00:25:03;;;;;;;10.20;5.38;;;537.70;2406.40;;;;;;5032500;28;20022;-78
2023/07/29 00:27:29;;;;;;;10.05;5.63;;;537.60;2406.40;;;;;;5031864;28;20041;-78
2023/07/29 00:29:55;;;;;;;8.95;5.70;;;512.80;2380.80;;;;;;5028394;28;20033;-78
2023/07/29 00:32:21;;;;;;;12.68;5.47;;;512.70;2380.80;;;;;;5030991;28;20083;-78
2023/07/29 00:34:46;;;;;;;9.20;4.70;;;512.50;2380.80;;;;;;5024712;28;20108;-77
2023/07/29 00:37:12;;;;;;;9.73;4.63;;;512.50;2380.80;;;;;;5031272;28;20422;-77
2023/07/29 00:39:38;;;;;;;6.28;4.10;;;512.20;2380.80;;;;;;5031016;28;20053;-78
2023/07/29 00:42:05;;;;;;;9.80;4.60;;;512.40;2380.80;;;;;;5031313;28;20083;-78
2023/07/29 00:44:31;;;;;;;6.60;4.30;;;512.50;2380.80;;;;;;5013903;28;20061;-77
2023/07/29 00:46:58;;;;;;;11.85;5.15;;;512.40;2380.80;;;;;;5011396;28;20044;-77
2023/07/29 00:49:24;;;;;;;10.60;4.72;;;512.30;2380.80;;;;;;5026791;28;20037;-78
2023/07/29 00:51:50;;;;;;;10.10;4.70;;;512.20;2380.80;;;;;;5013216;28;20501;-77
2023/07/29 00:54:16;;;;;;;9.85;4.75;;;512.10;2380.80;;;;;;5034346;28;20050;-77
2023/07/29 00:56:42;;;;;;;9.05;4.70;;;487.30;2380.80;;;;;;5030779;28;20075;-77
2023/07/29 00:59:08;;;;;;;9.43;4.85;;;487.00;2380.80;;;;;;5030722;28;20060;-77
2023/07/29 01:01:34;;;;;;;10.50;4.53;;;487.20;2380.80;;;;;;5039245;28;20375;-77
2023/07/29 01:04:00;;;;;;;8.73;4.82;;;487.10;2380.80;;;;;;5030122;28;20034;-78
2023/07/29 01:06:52;;;;;;;9.65;4.68;;;487.10;2380.80;;;;;;5028329;28;20033;-78
2023/07/29 01:09:40;;;;;;;10.75;4.85;;;487.10;2380.80;;;;;;5030704;28;20500;-78
2023/07/29 01:12:16;;;;;;;8.20;4.82;;;486.90;2380.80;;;;;;5030948;28;20063;-78
2023/07/29 01:14:53;;;;;;;8.80;4.40;;;486.90;2380.80;;;;;;5030761;28;20141;-77
2023/07/29 01:17:33;;;;;;;9.25;4.93;;;486.90;2380.80;;;;;;5031402;28;20025;-77
2023/07/29 01:20:08;;;;;;;10.77;4.88;;;486.90;2380.80;;;;;;5028910;28;20464;-78
2023/07/29 01:22:35;;;;;;;9.35;4.97;;;486.90;2380.80;;;;;;5030558;28;20056;-78
2023/07/29 01:25:01;;;;;;;8.15;5.05;;;486.90;2380.80;;;;;;5034966;28;20614;-77
2023/07/29 01:27:27;;;;;;;9.55;4.97;;;487.00;2380.80;;;;;;5030500;28;20036;-78
2023/07/29 01:29:54;;;;;;;9.88;5.15;;;487.00;2380.80;;;;;;5023578;28;20774;-78
2023/07/29 01:32:35;;;;;;;8.82;4.55;;;487.10;2380.80;;;;;;5009101;28;20041;-77
2023/07/29 01:35:31;;;;;;;8.18;5.07;;;487.20;2380.80;;;;;;5028391;28;20040;-78
2023/07/29 01:38:23;;;;;;;9.25;4.50;;;487.30;2380.80;;;;;;5026046;28;20399;-78
2023/07/29 01:40:51;;;;;;;6.65;4.30;;;487.30;2380.80;;;;;;5012297;28;20040;-78
2023/07/29 01:43:18;;;;;;;7.82;4.45;;;487.20;2380.80;;;;;;5012283;28;20056;-78
2023/07/29 01:45:44;;;;;;;8.18;4.53;;;487.20;2380.80;;;;;;5025154;28;20045;-77
2023/07/29 01:48:10;;;;;;;8.88;4.75;;;487.20;2380.80;;;;;;5029075;28;20033;-77
2023/07/29 01:50:36;;;;;;;10.38;4.90;;;487.20;2380.80;;;;;;5029992;28;20399;-78
2023/07/29 01:53:01;;;;;;;8.52;4.40;;;487.20;2380.80;;;;;;5030159;28;20026;-78
2023/07/29 01:55:27;;;;;;;6.80;3.85;;;512.00;2380.80;;;;;;5029379;28;20044;-77
2023/07/29 01:57:53;;;;;;;6.22;4.30;;;512.10;2380.80;;;;;;5030676;28;20809;-77
2023/07/29 02:00:19;;;;;;;7.95;4.05;;;512.20;2380.80;;;;;;5030332;28;20111;-77
2023/07/29 02:02:45;;;;;;;9.98;4.43;;;512.20;2380.80;;;;;;5030224;28;20484;-78
2023/07/29 02:05:11;;;;;;;9.98;3.92;;;512.20;2380.80;;;;;;5026793;28;20092;-77
2023/07/29 02:07:37;;;;;;;7.38;4.13;;;512.20;2380.80;;;;;;5030593;28;20037;-78
2023/07/29 02:10:03;;;;;;;8.50;4.00;;;512.30;2380.80;;;;;;5029326;28;20068;-77
2023/07/29 02:12:28;;;;;;;7.90;4.28;;;512.40;2329.60;;;;;;5028104;28;20499;-77
2023/07/29 02:14:54;;;;;;;6.20;3.85;;;512.40;2355.20;;;;;;5029998;28;20053;-77
2023/07/29 02:17:20;;;;;;;7.50;4.13;;;512.50;2380.80;;;;;;5030556;28;20375;-77
2023/07/29 02:19:46;;;;;;;7.40;3.85;;;512.50;2380.80;;;;;;5029611;28;20037;-77
2023/07/29 02:22:17;;;;;;;8.15;3.60;;;512.50;2380.80;;;;;;5029089;28;20502;-77
2023/07/29 02:24:42;;;;;;;7.38;3.88;;;512.60;2380.80;;;;;;5029267;28;20099;-77
2023/07/29 02:27:08;;;;;;;7.22;3.92;;;512.50;2380.80;;;;;;5030530;28;20476;-77
2023/07/29 02:29:34;;;;;;;7.10;3.83;;;512.60;2380.80;;;;;;5028656;28;20396;-77
2023/07/29 02:32:00;;;;;;;8.73;3.60;;;512.60;2380.80;;;;;;5032985;28;20025;-77
2023/07/29 02:34:26;;;;;;;7.68;3.70;;;512.60;2380.80;;;;;;5033843;28;20025;-77
2023/07/29 02:36:52;;;;;;;7.25;4.00;;;512.60;2380.80;;;;;;5033882;28;20100;-77
2023/07/29 02:39:17;;;;;;;7.32;3.80;;;512.60;2380.80;;;;;;5035033;28;20028;-77
2023/07/29 02:41:43;;;;;;;6.80;3.72;;;512.50;2380.80;;;;;;5016674;28;20038;-77
2023/07/29 02:44:09;;;;;;;7.95;4.22;;;512.30;2380.80;;;;;;5015088;28;20041;-78
2023/07/29 02:46:37;;;;;;;6.80;3.75;;;512.00;2380.80;;;;;;5033164;28;20510;-78
2023/07/29 02:49:04;;;;;;;8.13;3.78;;;487.30;2124.80;;;;;;5032821;28;20164;-77
2023/07/29 02:51:33;;;;;;;10.95;3.83;;;487.20;2355.20;;;;;;5033603;28;20030;-77
2023/07/29 02:53:59;;;;;;;6.63;3.80;;;487.20;2278.40;;;;;;5031806;28;20037;-78
2023/07/29 02:56:24;;;;;;;11.40;3.97;;;487.20;2380.80;;;;;;5033151;28;20040;-78
2023/07/29 02:58:53;;;;;;;6.20;3.58;;;487.20;2227.20;;;;;;5032809;28;20112;-77
2023/07/29 03:01:19;;;;;;;6.53;3.70;;;487.30;2380.80;;;;;;5033071;28;20044;-77
2023/07/29 03:03:44;;;;;;;7.72;4.45;;;512.00;2380.80;;;;;;5017049;28;20033;-78
2023/07/29 03:06:13;;;;;;;7.85;4.32;;;487.30;1996.80;;;;;;5030720;28;20056;-77
2023/07/29 03:08:39;;;;;;;9.57;4.10;;;487.30;2380.80;;;;;;5033726;28;20316;-78
2023/07/29 03:11:13;;;;;;;7.40;4.45;;;487.20;2380.80;;;;;;5032715;28;20499;-77
2023/07/29 03:13:39;;;;;;;9.65;4.22;;;487.20;2380.80;;;;;;5016215;28;20127;-77
2023/07/29 03:16:14;;;;;;;8.20;4.53;;;487.20;2380.80;;;;;;5033403;28;20025;-77
2023/07/29 03:18:40;;;;;;;9.82;4.43;;;487.30;2380.80;;;;;;5032831;28;20044;-77
2023/07/29 03:21:07;;;;;;;8.63;4.80;;;487.20;2380.80;;;;;;5022540;28;20061;-77
2023/07/29 03:23:34;;;;;;;8.27;4.50;;;487.20;2380.80;;;;;;5033058;28;20064;-77
2023/07/29 03:26:01;;;;;;;9.90;4.93;;;487.20;2380.80;;;;;;5033065;28;20045;-77
2023/07/29 03:28:33;;;;;;;11.70;4.85;;;487.20;2380.80;;;;;;5033137;28;20057;-77
2023/07/29 03:30:59;;;;;;;8.02;4.78;;;487.10;2380.80;;;;;;5030777;28;20079;-77
2023/07/29 03:33:25;;;;;;;8.45;4.57;;;487.10;2380.80;;;;;;5032088;28;20025;-77
2023/07/29 03:35:51;;;;;;;9.80;5.45;;;487.20;2380.80;;;;;;5033267;28;20034;-77
2023/07/29 03:38:17;;;;;;;10.73;5.82;;;487.20;2380.80;;;;;;5032997;28;20057;-78
2023/07/29 03:40:43;;;;;;;11.70;5.28;;;487.20;2380.80;;;;;;5033275;28;20064;-78
2023/07/29 03:43:09;;;;;;;12.50;6.22;;;487.20;2380.80;;;;;;5013640;28;20068;-77
2023/07/29 03:45:36;;;;;;;10.10;6.13;;;487.10;2380.80;;;;;;5032543;28;20032;-77
2023/07/29 03:48:02;;;;;;;16.98;7.97;;;487.00;2380.80;;;;;;5030806;28;20021;-77
2023/07/29 03:50:29;;;;;;;12.90;7.05;;;487.00;2380.80;;;;;;5032021;28;20022;-77
2023/07/29 03:52:55;;;;;;;10.65;6.10;;;487.10;2380.80;;;;;;5031992;28;20531;-78
2023/07/29 03:55:21;;;;;;;9.70;5.60;;;487.20;2380.80;;;;;;5032891;28;20112;-77
2023/07/29 03:57:47;;;;;;;9.98;5.47;;;487.20;2380.80;;;;;;5031734;28;20120;-77
2023/07/29 04:00:13;;;;;;;10.63;5.22;;;487.30;2380.80;;;;;;5030101;28;20104;-77
2023/07/29 04:02:39;;;;;;;13.63;5.28;;;512.00;2380.80;;;;;;5023806;28;20049;-77
2023/07/29 04:05:06;;;;;;;22.20;14.68;;;512.10;2380.80;;;;;;5032363;28;20043;-77
2023/07/29 04:07:32;;;;;;;16.38;7.80;;;512.10;2380.80;;;;;;5014403;28;20037;-77
2023/07/29 04:09:58;;;;;;;11.10;6.53;;;512.10;2380.80;;;;;;5032048;28;20036;-77
2023/07/29 04:12:24;;;;;;;12.27;5.65;;;512.20;2380.80;;;;;;5031781;28;20483;-77
2023/07/29 04:14:50;;;;;;;8.38;5.38;;;512.20;2380.80;;;;;;5015054;28;20036;-78
2023/07/29 04:17:16;;;;;;;9.40;5.43;;;487.30;2380.80;;;;;;5013989;28;20179;-77
2023/07/29 04:19:41;;;;;;;7.82;4.65;;;487.20;2380.80;;;;;;5031803;28;20037;-77
2023/07/29 04:22:07;;;;;;;9.18;4.80;;;487.20;2380.80;;;;;;5031794;28;20387;-77
2023/07/29 04:24:33;;;;;;;9.75;5.18;;;487.20;2380.80;;;;;;5014982;28;20026;-77
2023/07/29 04:26:59;;;;;;;7.43;5.20;;;487.20;2380.80;;;;;;5032031;28;20542;-78
2023/07/29 04:29:24;;;;;;;10.70;5.00;;;487.30;2380.80;;;;;;5031721;28;20041;-77
2023/07/29 04:31:51;;;;;;;9.68;5.00;;;487.30;2380.80;;;;;;5032283;28;20036;-78
2023/07/29 04:34:19;;;;;;;10.30;6.57;;;512.10;2380.80;;;;;;5031946;28;20387;-78
2023/07/29 04:36:46;;;;;;;9.77;6.38;;;512.30;2380.80;;;;;;5029365;28;20041;-78
2023/07/29 04:39:12;;;;;;;11.15;5.60;;;512.40;2380.80;;;;;;5013769;28;20034;-78
2023/07/29 04:41:38;;;;;;;12.38;6.25;;;512.60;2380.80;;;;;;5032808;28;20467;-77
2023/07/29 04:44:04;;;;;;;9.90;5.80;;;512.90;2380.80;;;;;;5032511;28;20029;-77
2023/07/29 04:46:30;;;;;;;14.18;6.55;;;537.70;2406.40;;;;;;5032425;28;20368;-77
2023/07/29 04:48:56;;;;;;;8.70;5.50;;;537.80;2406.40;;;;;;5033016;28;20103;-78
2023/07/29 04:51:22;;;;;;;8.52;4.45;;;538.10;2406.40;;;;;;5032455;28;20111;-77
2023/07/29 04:53:48;;;;;;;7.43;3.45;;;538.20;2406.40;;;;;;5031919;28;20041;-77
2023/07/29 04:56:13;;;;;;;5.47;3.17;;;563.20;2432.00;;;;;;5032031;28;20021;-77
2023/07/29 04:58:39;;;;;;;7.90;3.00;;;538.50;2406.40;;;;;;5032177;28;20040;-78
2023/07/29 05:01:06;;;;;;;6.10;3.33;;;;;;;;;;5030159;28;20394;-77
2023/07/29 05:03:32;;;;;;;8.40;3.00;;;;;;;;;;5031962;28;20029;-77
2023/07/29 05:05:59;;;;;;;5.45;2.80;;;;;;;;;;5013810;28;20103;-77
2023/07/29 05:08:26;;;;;;;7.18;2.85;;;;;;;;;;5031780;28;20095;-77
2023/07/29 05:10:52;;;;;;;11.88;5.28;;;;;;;;;;5042602;28;20044;-77
2023/07/29 05:13:19;;;;;;;5.75;3.40;;;;;;;;;;5032455;28;20105;-77
2023/07/29 05:15:45;;;;;;;7.65;3.53;;;564.10;2432.00;;;;;;5047273;28;20040;-77
2023/07/29 05:18:11;;;;;;;7.38;3.10;;;564.00;2432.00;;;;;;5013958;28;20360;-77
2023/07/29 05:20:37;;;;;;;6.78;2.97;;;564.00;2432.00;;;;;;5031956;28;20056;-77
2023/07/29 05:23:02;;;;;;;6.47;3.13;;;564.00;2432.00;;;;;;5014056;28;20029;-77
2023/07/29 05:25:29;;;;;;;6.38;2.70;;;563.90;2432.00;;;;;;5032119;28;20440;-78
2023/07/29 05:27:54;;;;;;;6.13;3.10;;;563.90;2432.00;;;;;;5031705;28;20025;-78
2023/07/29 05:30:20;;;;;;;4.93;3.00;;;563.90;2432.00;;;;;;5032353;28;20029;-78
2023/07/29 05:32:46;;;;;;;5.43;3.53;;;564.10;2432.00;;;;;;5032101;28;20489;-78
2023/07/29 05:35:12;;;;;;;7.53;3.55;;;564.00;2432.00;;;;;;5011909;28;20025;-78
2023/07/29 05:37:41;;;;;;;7.18;3.17;;;564.00;2432.00;;;;;;5012931;28;20041;-78
2023/07/29 05:40:10;;;;;;;6.88;3.10;;;564.10;2432.00;;;;;;5031413;28;20033;-78
2023/07/29 05:42:36;;;;;;;8.93;4.82;;;588.80;2432.00;;;;;;5031623;28;20141;-78
2023/07/29 05:45:02;;;;;;;6.13;3.15;;;589.00;2432.00;;;;;;5031885;28;20148;-78
2023/07/29 05:47:28;;;;;;;8.23;3.95;;;589.20;2432.00;;;;;;5013742;28;20442;-78
2023/07/29 05:49:54;;;;;;;6.38;3.38;;;589.30;2432.00;;;;;;5031269;28;20561;-77
2023/07/29 05:52:20;;;;;;;6.88;3.33;;;589.50;2432.00;;;;;;5031166;28;20079;-77
2023/07/29 05:54:45;;;;;;;6.57;3.22;;;614.50;2432.00;;;;;;5031525;28;20480;-78
2023/07/29 05:57:12;;;;;;;6.10;3.13;;;614.40;2432.00;;;;;;5014110;28;20021;-78
2023/07/29 05:59:38;;;;;;;9.02;4.32;;;614.40;2432.00;;;;;;5030639;28;20112;-78
2023/07/29 06:02:04;;;;;;;5.90;2.88;;;;;;;;;;5028827;28;20033;-77
2023/07/29 06:04:30;;;;;;;4.55;2.60;;;;;;;;;;5031669;28;20083;-78
2023/07/29 06:06:56;;;;;;;6.15;3.00;;;;;;;;;;5035026;28;20037;-77
2023/07/29 06:09:23;;;;;;;5.65;3.20;;;;;;;;;;5034983;28;20124;-77
2023/07/29 06:11:49;;;;;;;4.80;2.90;;;;;;;;;;5037176;28;20120;-77
2023/07/29 06:14:15;;;;;;;4.45;2.60;;;;;;;;;;5035417;28;20026;-78
2023/07/29 06:16:41;;;;;;;5.10;2.63;;;;;;;;;;5035366;28;20025;-77
2023/07/29 06:19:08;;;;;;;5.78;2.55;;;;;;;;;;5033605;28;20033;-78
2023/07/29 06:21:34;;;;;;;7.78;2.63;;;615.00;2432.00;;;;;;5034722;28;20039;-77
2023/07/29 06:24:00;;;;;;;5.07;2.78;;;614.80;2432.00;;;;;;5035191;28;20370;-77
2023/07/29 06:26:26;;;;;;;5.65;2.85;;;;;;;;;;5033617;28;20045;-78
2023/07/29 06:28:52;;;;;;;7.97;2.60;;;;;;;;;;5035472;28;20049;-77
2023/07/29 06:31:19;;;;;;;5.57;2.50;;;;;;;;;;5040136;28;20049;-78
2023/07/29 06:33:45;;;;;;;4.68;2.50;;;;;;;;;;5034980;28;20029;-78
2023/07/29 06:36:11;;;;;;;6.05;2.78;;;;;;;;;;5032583;28;20471;-77
2023/07/29 06:38:38;;;;;;;6.38;2.53;;;;;;;;;;5033364;28;20039;-79
2023/07/29 06:41:04;;;;;;;5.05;2.72;;;;;;;;;;5034798;28;20052;-79
2023/07/29 06:43:30;;;;;;;7.25;2.88;;;640.30;2432.00;;;;;;5033401;28;20518;-77
2023/07/29 06:45:55;;;;;;;7.88;3.00;;;640.30;2432.00;;;;;;5035191;28;20056;-77
2023/07/29 06:48:21;;;;;;;4.93;2.65;;;640.30;2432.00;;;;;;5034969;28;20026;-77
2023/07/29 06:50:47;;;;;;;7.10;2.67;;;640.40;2432.00;;;;;;5034902;28;20033;-78
2023/07/29 06:53:13;;;;;;;7.78;2.80;;;640.30;2432.00;;;;;;5034199;28;20072;-77
2023/07/29 06:55:39;;;;;;;5.60;3.05;;;640.30;2432.00;;;;;;5016445;28;20037;-76
2023/07/29 06:58:05;;;;;;;7.22;2.83;;;640.40;2432.00;;;;;;5035032;28;20177;-76
2023/07/29 07:00:30;;;;;;;5.82;2.80;;;640.50;2432.00;;;;;;5032235;28;20025;-76
2023/07/29 07:02:56;;;;;;;7.28;2.90;;;;;;;;;;5034345;28;20021;-76
2023/07/29 07:05:22;;;;;;;7.07;2.90;;;;;;;;;;5034343;28;20040;-76
2023/07/29 07:07:48;;;;;;;6.40;2.58;;;;;;;;;;5034332;28;20079;-76
2023/07/29 07:10:15;;;;;;;7.28;3.08;;;;;;;;;;5039822;28;20064;-76
2023/07/29 07:12:40;;;;;;;8.95;2.60;;;665.60;2432.00;;;;;;5034173;28;20414;-79
2023/07/29 07:15:07;;;;;;;5.63;2.75;;;640.90;2432.00;;;;;;5034162;28;20029;-76
2023/07/29 07:17:32;;;;;;;4.65;2.80;;;666.00;2432.00;;;;;;5015157;28;20032;-76
2023/07/29 07:19:58;;;;;;;8.48;3.20;;;;;;;;;;5032865;28;20034;-76
2023/07/29 07:22:24;;;;;;;5.85;2.75;;;666.20;2432.00;;;;;;5033878;28;20028;-75
2023/07/29 07:24:50;;;;;;;4.85;2.65;;;;;;;;;;5033836;28;20022;-76
2023/07/29 07:27:16;;;;;;;9.20;3.35;;;;;;;;;;5033755;28;20049;-76
2023/07/29 07:29:42;;;;;;;6.18;2.58;;;;;;;;;;5034582;28;20033;-76
2023/07/29 07:32:08;;;;;;;6.68;2.85;;;;;;;;;;5032288;28;20140;-79
2023/07/29 07:34:34;;;;;;;8.13;3.25;;;;;;;;;;5035781;28;20021;-78
2023/07/29 07:37:03;;;;;;;5.10;2.60;;;;;;;;;;5035099;28;20042;-78
2023/07/29 07:39:29;;;;;;;5.95;2.60;;;;;;;;;;5036276;28;20565;-79
2023/07/29 07:41:55;;;;;;;4.85;2.40;;;;;;;;;;5033351;28;20037;-76
2023/07/29 07:44:22;;;;;;;4.97;2.33;;;;;;;;;;5034662;28;20087;-75
2023/07/29 07:46:48;;;;;;;6.68;2.83;;;;;;;;;;5044148;28;20059;-76
2023/07/29 07:49:14;;;;;;;5.55;2.70;;;;;;;;;;5028898;28;20107;-77
2023/07/29 07:51:40;;;;;;;3.95;2.60;;;;;;;;;;5017399;28;20030;-76
2023/07/29 07:54:06;;;;;;;6.40;2.53;;;;;;;;;;5033537;28;20030;-76
2023/07/29 07:56:33;;;;;;;5.70;2.60;;;;;;;;;;5033751;28;20029;-76
2023/07/29 07:58:59;;;;;;;7.05;2.80;;;;;;;;;;5033994;28;20030;-78
2023/07/29 08:01:25;;;;;;;4.97;2.63;;;;;;;;;;5035844;28;20017;-79
2023/07/29 08:03:51;;;;;;;5.30;2.50;;;;;;;;;;5034404;28;20425;-79
2023/07/29 08:06:20;;;;;;;6.50;2.50;;;;;;;;;;5035525;28;20537;-78
2023/07/29 08:08:46;;;;;;;6.03;2.70;;;;;;;;;;5032106;28;20041;-79
2023/07/29 08:11:12;;;;;;;7.18;2.60;;;;;;;;;;5033145;28;20516;-76
2023/07/29 08:13:38;;;;;;;4.57;2.40;;;;;;;;;;5035312;28;20497;-79
2023/07/29 08:16:04;;;;;;;5.22;2.53;;;;;;;;;;5035324;28;20451;-78
2023/07/29 08:18:30;;;;;;;5.85;2.40;;;;;;;;;;5033215;28;20026;-78
2023/07/29 08:21:04;;;;;;;6.63;2.85;;;;;;;;;;5034505;28;20108;-77
2023/07/29 08:23:31;;;;;;;6.65;2.53;;;;;;;;;;5034715;28;20486;-79
2023/07/29 08:26:01;;;;;;;5.05;2.45;;;;;;;;;;5030784;28;20120;-78
2023/07/29 08:28:31;;;;;;;5.40;2.15;;;;;;;;;;5034189;28;20029;-77
2023/07/29 08:30:58;;;;;;;4.78;2.55;;;;;;;;;;5031206;28;20041;-75
2023/07/29 08:33:24;;;;;;;3.80;2.35;;;;;;;;;;5032812;28;20052;-75
2023/07/29 08:35:51;;;;;;;5.75;2.60;;;;;;;;;;5033038;28;20035;-75
2023/07/29 08:38:17;;;;;;;6.90;2.58;;;;;;;;;;5034942;28;20059;-77
2023/07/29 08:40:45;;;;;;;5.78;2.50;;;;;;;;;;5033981;28;20032;-78
2023/07/29 08:43:12;;;;;;;7.10;2.40;;;;;;;;;;5034558;28;20719;-79
2023/07/29 08:45:39;;;;;;;5.70;2.50;;;;;;;;;;5030404;28;20025;-77
2023/07/29 08:48:08;;;;;;;5.63;2.38;;;;;;;;;;5033481;28;20132;-78
2023/07/29 08:50:36;;;;;;;6.28;2.38;;;;;;;;;;5033012;28;20052;-80
2023/07/29 08:53:04;;;;;;;4.65;2.58;;;;;;;;;;5034952;28;20018;-77
2023/07/29 08:55:30;;;;;;;4.85;2.45;;;;;;;;;;5033731;28;20055;-80
2023/07/29 08:57:56;;;;;;;6.13;2.58;;;;;;;;;;5033328;28;20037;-79
2023/07/29 09:00:23;;;;;;;4.80;2.70;;;;;;;;;;5034458;28;20040;-78
2023/07/29 09:02:49;;;;;;;3.95;2.20;;;;;;;;;;5034161;28;20112;-77
2023/07/29 09:05:15;;;;;;;4.57;2.45;;;;;;;;;;5034071;28;20108;-80
2023/07/29 09:07:42;;;;;;;5.55;2.92;;;;;;;;;;5033873;28;20034;-79
2023/07/29 09:10:10;;;;;;;6.25;2.70;;;;;;;;;;5045077;28;20061;-80
2023/07/29 09:12:37;;;;;;;5.85;2.40;;;;;;;;;;5028665;28;20029;-79
2023/07/29 09:15:03;;;;;;;5.05;2.55;;;;;;;;;;5034166;28;20022;-77
2023/07/29 09:17:32;;;;;;;6.80;2.67;;;;;;;;;;5033584;28;20025;-77
2023/07/29 09:19:58;;;;;;;5.35;2.20;;;;;;;;;;5031612;28;20033;-80
2023/07/29 09:22:25;;;;;;;5.45;2.92;;;;;;;;;;5032606;28;20029;-79
2023/07/29 09:24:52;;;;;;;4.88;2.33;;;;;;;;;;5034394;28;20017;-78
2023/07/29 09:27:28;;;;;;;5.90;2.42;;;;;;;;;;5034239;28;20033;-79
2023/07/29 09:29:54;;;;;;;3.92;2.10;;;;;;;;;;5033329;28;20026;-79
2023/07/29 09:32:21;;;;;;;4.97;2.22;;;;;;;;;;5032649;28;20026;-79
2023/07/29 09:34:48;;;;;;;6.93;3.50;;;;;;;;;;5034050;28;20422;-79
2023/07/29 09:37:17;;;;;;;4.85;2.35;;;;;;;;;;5033328;28;20079;-78
2023/07/29 09:39:50;;;;;;;6.53;2.80;;;;;;;;;;5032712;28;20021;-79
2023/07/29 09:42:22;;;;;;;5.05;2.15;;;;;;;;;;5032980;28;20029;-79
2023/07/29 09:44:49;;;;;;;4.93;2.40;;;;;;;;;;5032476;28;20036;-80
2023/07/29 09:47:25;;;;;;;4.72;2.40;;;;;;;;;;5033831;28;20038;-79
2023/07/29 09:49:51;;;;;;;5.20;2.47;;;;;;;;;;5033329;28;20024;-78
2023/07/29 09:52:19;;;;;;;4.78;2.65;;;793.90;1817.60;;;;;;5030704;28;20029;-79
2023/07/29 09:54:46;;;;;;;7.10;3.17;;;793.60;1843.20;;;;;;5033053;28;20075;-79
2023/07/29 09:57:14;;;;;;;3.47;2.20;;;;;;;;;;5032637;28;20026;-77
2023/07/29 09:59:40;;;;;;;5.57;2.33;;;794.40;1817.60;;;;;;5033327;28;20029;-79
2023/07/29 10:02:15;;;;;;;4.68;2.38;;;794.10;1817.60;;;;;;5032282;28;20037;-79
2023/07/29 10:04:43;;;;;;;;;;;794.10;1817.60;;;;;;5033497;28;20120;-76
2023/07/29 10:07:10;;;;;;;3.83;2.22;;;;;;;;;;5013965;28;20385;-77
2023/07/29 10:09:38;;;;;;;3.60;2.33;;;794.50;1766.40;;;;;;5030424;28;20037;-78
2023/07/29 10:12:06;;;;;;;5.40;2.35;;;;;;;;;;5028673;28;20494;-77
2023/07/29 10:14:32;;;;;;;6.63;2.95;;;;;;;;;;5031070;28;20126;-77
2023/07/29 10:16:59;;;;;;;5.43;2.58;;;;;;;;;;5031112;28;20344;-77
2023/07/29 10:19:26;;;;;;;4.03;2.10;;;;;;;;;;5031113;28;20033;-77
2023/07/29 10:21:52;;;;;;;4.90;2.33;;;;;;;;;;5031149;28;20021;-77
2023/07/29 10:24:28;;;;;;;6.78;2.33;;;;;;;;;;5031051;28;20498;-77
2023/07/29 10:26:57;;;;;;;6.22;2.80;;;;;;;;;;5012775;28;20038;-76
2023/07/29 10:29:24;;;;;;;6.28;2.15;;;794.50;1638.40;;;;;;5028251;28;20029;-77
2023/07/29 10:31:56;;;;;;;4.53;2.15;;;794.40;1689.60;;;;;;5031608;28;20025;-76
2023/07/29 10:34:22;;;;;;;4.05;2.03;;;;;;;;;;5031241;28;20021;-77
2023/07/29 10:36:49;;;;;;;4.15;2.20;;;820.00;1587.20;;;;;;5013516;28;20038;-79
2023/07/29 10:39:15;;;;;;;4.15;2.05;;;;;;;;;;5031199;28;20025;-78
2023/07/29 10:42:02;;;;;;;4.85;2.40;;;;;;;;;;5031441;28;20021;-79
2023/07/29 10:44:40;;;;;;;6.95;2.20;;;819.90;1536.00;;;;;;5031071;28;20148;-79
2023/07/29 10:47:35;;;;;;;5.28;2.20;;;819.60;1536.00;;;;;;5031742;28;20043;-78
2023/07/29 10:50:18;;;;;;;5.07;2.30;;;819.50;1536.00;;;;;;4955436;28;20039;-80
2023/07/29 10:52:43;;;;;;;4.07;1.90;;;819.70;1510.40;;;;;;4973525;28;20405;-80
2023/07/29 10:55:26;;;;;;;4.95;2.20;;;;;;;;;;4975606;28;20046;-79
2023/07/29 10:57:55;;;;;;;4.97;2.33;;;;;;;;;;4975017;28;20023;-78
2023/07/29 11:00:21;;;;;;;4.43;2.28;;;;;;;;;;4993781;28;20388;-79
2023/07/29 11:02:57;;;;;;;5.55;2.30;;;;;;;;;;4986103;28;20022;-79
2023/07/29 11:05:23;;;;;;;4.43;2.40;;;;;;;;;;4973815;28;20062;-78
2023/07/29 11:07:49;;;;;;;5.22;3.30;;;845.20;1484.80;;;;;;4975011;28;20030;-81
2023/07/29 11:10:16;;;;;;;4.07;2.05;;;;;;;;;;4982014;28;20032;-79
2023/07/29 11:12:43;;;;;;;4.40;2.20;;;870.40;1536.00;;;;;;4973849;28;20037;-78
2023/07/29 11:15:14;;;;;;;6.63;3.33;;;;;;;;;;4974973;28;20026;-79
2023/07/29 11:18:01;;;;;;;7.20;2.40;;;845.30;1587.20;;;;;;4974745;28;20027;-78
2023/07/29 11:20:33;;;;;;;4.80;2.40;;;845.30;1536.00;;;;;;4974394;28;20070;-79
2023/07/29 11:23:03;;;;;;;4.22;2.30;;;845.70;1536.00;;;;;;4974651;28;20085;-78
2023/07/29 11:25:30;;;;;;;5.53;2.60;;;;;;;;;;4982443;28;20045;-79
2023/07/29 11:28:00;;;;;;;5.70;2.53;;;;;;;;;;5035521;28;20117;-79
2023/07/29 11:30:27;;;;;;;6.22;3.80;;;;;;;;;;5035259;28;20049;-79
2023/07/29 11:32:55;;;;;;;6.15;2.55;;;;;;;;;;5034356;28;20032;-79
2023/07/29 11:35:21;;;;;;;5.20;2.30;;;845.50;1484.80;;;;;;5035709;28;20021;-78
2023/07/29 11:37:48;;;;;;;4.18;2.42;;;;;;;;;;5035528;28;20049;-79
2023/07/29 11:40:15;;;;;;;6.55;2.42;;;;;;;;;;5034980;28;20026;-79
2023/07/29 11:42:41;;;;;;;4.82;2.60;;;;;;;;;;5035285;28;20055;-79
2023/07/29 11:45:08;;;;;;;5.15;2.30;;;;;;;;;;5032974;28;20076;-79
2023/07/29 11:47:37;;;;;;;5.25;2.08;;;;;;;;;;5031839;28;20025;-80
2023/07/29 11:50:04;;;;;;;4.82;2.30;;;;;;;;;;5033272;28;20033;-79
2023/07/29 11:52:32;;;;;;;5.03;2.42;;;;;;;;;;5032948;28;20128;-80
2023/07/29 11:54:58;;;;;;;5.97;2.78;;;819.50;1510.40;;;;;;5033532;28;20033;-79
2023/07/29 11:57:24;;;;;;;3.85;2.45;;;819.40;1536.00;;;;;;5035601;28;20076;-80
2023/07/29 11:59:50;;;;;;;5.70;2.55;;;819.40;1587.20;;;;;;5035067;28;20021;-79
2023/07/29 12:02:19;;;;;;;4.45;2.63;;;819.60;1561.60;;;;;;5034879;28;20033;-79
2023/07/29 12:04:46;;;;;;;3.53;2.00;;;;;;;;;;5034106;28;20108;-78
2023/07/29 12:07:13;;;;;;;3.95;2.42;;;;;;;;;;5035152;28;20041;-79
2023/07/29 12:09:40;;;;;;;5.00;2.40;;;819.40;1536.00;;;;;;5034534;28;20487;-78
2023/07/29 12:12:06;;;;;;;3.80;2.47;;;819.40;1561.60;;;;;;5031870;28;20084;-79
2023/07/29 12:14:33;;;;;;;4.65;2.38;;;;;;;;;;5033819;28;20391;-77
2023/07/29 12:17:06;;;;;;;3.30;2.25;;;820.10;1536.00;;;;;;5033634;28;20029;-79
2023/07/29 12:19:36;;;;;;;3.75;2.28;;;819.60;1510.40;;;;;;5035562;28;20022;-78
2023/07/29 12:22:04;;;;;;;5.18;2.45;;;820.10;1510.40;;;;;;5034748;28;20026;-79
2023/07/29 12:24:31;;;;;;;4.38;2.58;;;845.20;1510.40;;;;;;5034809;28;20029;-79
2023/07/29 12:26:57;;;;;;;4.00;2.20;;;;;;;;;;5034782;28;20041;-78
2023/07/29 12:29:23;;;;;;;7.15;2.53;;;845.50;1459.20;;;;;;5034752;28;20489;-80
2023/07/29 12:31:57;;;;;;;5.38;2.20;;;845.50;1459.20;;;;;;5034441;28;20025;-79
2023/07/29 12:34:24;;;;;;;6.47;2.45;;;845.10;1536.00;;;;;;5033894;28;20044;-79
2023/07/29 12:36:55;;;;;;;4.88;2.40;;;845.00;1459.20;;;;;;5033855;28;20033;-79
2023/07/29 12:39:32;;;;;;;6.15;2.72;;;845.00;1484.80;;;;;;5033194;28;20037;-79
2023/07/29 12:41:59;;;;;;;3.75;2.10;;;820.00;1484.80;;;;;;5034200;28;20086;-80
2023/07/29 12:44:33;;;;;;;4.53;2.20;;;844.80;1510.40;;;;;;5032549;28;20022;-78
2023/07/29 12:47:02;;;;;;;6.00;2.50;;;844.80;1510.40;;;;;;5030686;28;20067;-79
2023/07/29 12:49:32;;;;;;;4.20;2.13;;;;;;;;;;5033978;28;20025;-80
2023/07/29 12:52:01;;;;;;;6.15;2.30;;;;;;;;;;5033877;28;20403;-79
2023/07/29 12:54:26;;;;;;;4.32;2.35;;;870.60;1433.60;;;;;;5034340;28;20515;-79
2023/07/29 12:56:52;;;;;;;4.30;2.30;;;870.50;1433.60;;;;;;5034518;28;20061;-81
2023/07/29 12:59:18;;;;;;;4.28;2.20;;;845.60;1433.60;;;;;;5033800;28;20017;-80
2023/07/29 13:01:44;;;;;;;3.90;2.05;;;845.10;1484.80;;;;;;5015776;28;20128;-79
2023/07/29 13:04:10;;;;;;;5.03;2.60;;;844.80;1510.40;;;;;;5033554;28;20033;-78
2023/07/29 13:06:36;;;;;;;5.38;2.30;;;845.10;1510.40;;;;;;5031913;28;20048;-77